Time;durP1;ratioP1;P1;durP2;ratioP2;P2;SDS_P1;SDS_P2;PMS_P1;PMS_P2;Temp;Humidity;BMP_temperature;BMP_pressure;BME280_temperature;BME280_humidity;BME280_pressure;Samples;Min_cycle;Max_cycle;Signal;HPM_P1;HPM_P2
2022/01/10 01:33:03;;;;;;;;;;;;;;;;;;;;;
2022/01/10 02:43:43;;;;;;;;;;;;;;;;;;;;;
2022/01/10 02:47:55;;;;;;;;;;;;;;;;;;;;;
2022/01/10 02:52:14;;;;;;;;;;;;;;;;;;;;;
2022/01/10 03:46:38;;;;;;;;;;;;;;;;;;;;;
2022/01/10 06:50:29;;;;;;;34.63;14.57;;;-0.50;99.90;;;;;;6135055;23;1279424;-82
2022/01/10 06:52:57;;;;;;;32.78;13.52;;;-0.80;99.90;;;;;;6156230;23;20095;-82
2022/01/10 06:55:22;;;;;;;29.85;14.60;;;-0.50;99.90;;;;;;6132529;23;20457;-79
2022/01/10 06:58:01;;;;;;;;;;;;;;;;;;;;;
2022/01/10 07:00:28;;;;;;;38.03;16.65;;;-0.50;99.90;;;;;;6156686;23;20048;-82
2022/01/10 07:03:01;;;;;;;45.17;18.50;;;-0.30;99.90;;;;;;6131786;23;20021;-81
2022/01/10 07:05:30;;;;;;;42.40;18.67;;;-0.20;99.90;;;;;;6157422;23;20013;-82
2022/01/10 07:08:05;;;;;;;37.83;18.42;;;1.20;99.90;;;;;;6182520;23;20020;-82
2022/01/10 07:18:23;;;;;;;37.10;16.88;;;-0.10;99.90;;;;;;5921777;24;20016;-80
2022/01/10 07:21:43;;;;;;;36.53;15.75;;;-0.30;99.90;;;;;;5876883;24;20021;-82
2022/01/10 07:25:00;;;;;;;34.30;17.08;;;-0.80;99.90;;;;;;5836156;24;20022;-82
2022/01/10 07:32:17;;;;;;;;;;;;;;;;;;;;;
2022/01/10 07:35:28;;;;;;;42.58;16.40;;;0.10;99.90;;;;;;5786758;24;20081;-81
2022/01/10 07:46:17;;;;;;;;;;;;;;;;;;;;;
2022/01/10 07:49:52;;;;;;;36.55;18.00;;;-0.60;99.90;;;;;;5706550;24;20104;-81
2022/01/10 07:52:29;;;;;;;37.63;19.42;;;-1.20;99.90;;;;;;5655834;25;20440;-82
2022/01/10 07:55:19;;;;;;;45.67;20.85;;;0.20;99.90;;;;;;5699880;25;20024;-81
2022/01/10 08:05:03;;;;;;;48.40;21.13;;;-1.10;99.90;;;;;;5634274;25;20408;-81
2022/01/10 08:07:29;;;;;;;42.38;20.30;;;-0.30;99.90;;;;;;5592513;25;20014;-79
2022/01/10 08:09:54;;;;;;;37.28;18.67;;;-0.40;99.90;;;;;;5634069;25;20814;-79
2022/01/10 08:12:21;;;;;;;39.30;20.42;;;-0.50;99.90;;;;;;5623516;25;20026;-79
2022/01/10 08:14:48;;;;;;;52.53;20.75;;;-0.50;99.90;;;;;;5607516;25;20006;-80
2022/01/10 08:17:14;;;;;;;36.05;18.95;;;-0.50;99.90;;;;;;5613228;25;20025;-79
2022/01/10 08:19:39;;;;;;;43.72;18.75;;;-0.50;99.90;;;;;;5682760;25;20017;-79
2022/01/10 08:22:15;;;;;;;47.95;21.55;;;-0.30;99.90;;;;;;5710655;24;20035;-80
2022/01/10 08:24:52;;;;;;;38.63;19.45;;;-0.60;99.90;;;;;;5710213;25;20424;-79
2022/01/10 08:27:46;;;;;;;39.17;18.50;;;-0.50;99.90;;;;;;5767251;24;20046;-83
2022/01/10 08:30:17;;;;;;;35.05;18.10;;;-0.50;99.90;;;;;;5813197;24;20168;-83
2022/01/10 08:32:46;;;;;;;43.42;19.52;;;-0.50;99.90;;;;;;5814164;24;20092;-82
2022/01/10 08:35:15;;;;;;;36.10;18.63;;;0.10;99.90;;;;;;5792236;24;20084;-84
2022/01/10 08:38:04;;;;;;;44.75;19.80;;;-0.40;99.90;;;;;;5863998;23;20516;-85
2022/01/10 08:41:03;;;;;;;34.45;18.23;;;-0.90;99.90;;;;;;6084202;23;20013;-81
2022/01/10 08:47:09;;;;;;;37.72;19.73;;;-0.20;99.90;;;;;;6062307;23;20017;-82
2022/01/10 08:49:35;;;;;;;48.35;23.15;;;0.70;99.90;;;;;;6018706;23;20057;-79
2022/01/10 08:52:01;;;;;;;45.30;22.60;;;-0.10;99.90;;;;;;6066982;23;20094;-79
2022/01/10 08:54:26;;;;;;;56.22;25.27;;;-0.10;99.90;;;;;;6018876;23;20018;-79
2022/01/10 08:56:53;;;;;;;67.47;28.23;;;0.00;99.90;;;;;;6065591;23;20330;-78
2022/01/10 08:59:19;;;;;;;56.42;27.23;;;0.00;99.90;;;;;;6042229;23;20015;-78
2022/01/10 09:01:46;;;;;;;68.05;28.80;;;0.10;99.90;;;;;;6091034;23;20489;-78
2022/01/10 09:04:16;;;;;;;63.75;28.70;;;0.20;99.90;;;;;;6041424;23;20022;-78
2022/01/10 09:06:50;;;;;;;57.65;27.75;;;0.20;99.90;;;;;;6041324;23;20042;-78
2022/01/10 09:09:17;;;;;;;58.42;26.83;;;0.20;99.90;;;;;;6089322;23;20078;-77
2022/01/10 09:11:43;;;;;;;57.92;27.60;;;0.30;99.90;;;;;;6090620;23;20018;-79
2022/01/10 09:14:10;;;;;;;60.08;27.23;;;0.30;99.90;;;;;;6091237;23;20085;-79
2022/01/10 09:16:36;;;;;;;67.28;28.30;;;0.40;99.90;;;;;;6088648;23;20090;-80
2022/01/10 09:19:02;;;;;;;71.78;28.80;;;0.30;99.90;;;;;;6104247;23;20016;-78
2022/01/10 09:21:28;;;;;;;58.83;28.83;;;0.30;99.90;;;;;;6129822;23;20385;-76
2022/01/10 09:23:53;;;;;;;57.85;26.50;;;0.50;99.90;;;;;;6154999;23;20028;-78
2022/01/10 09:26:19;;;;;;;41.22;23.25;;;0.50;99.90;;;;;;6156663;23;20045;-79
2022/01/10 09:28:45;;;;;;;44.78;23.75;;;0.60;99.90;;;;;;6132923;23;20009;-79
2022/01/10 09:31:12;;;;;;;48.13;23.85;;;0.50;99.90;;;;;;6132089;23;20013;-78
2022/01/10 09:33:38;;;;;;;44.63;22.60;;;0.60;99.90;;;;;;6156499;23;20020;-79
2022/01/10 09:36:04;;;;;;;45.63;23.67;;;1.00;99.90;;;;;;6156683;23;20013;-80
2022/01/10 09:38:31;;;;;;;58.88;27.40;;;0.60;99.90;;;;;;6157293;23;20103;-80
2022/01/10 09:40:57;;;;;;;45.75;24.60;;;0.70;99.90;;;;;;6156579;23;20013;-79
2022/01/10 09:43:23;;;;;;;47.33;24.80;;;0.80;99.90;;;;;;6132893;23;20048;-80
2022/01/10 09:45:55;;;;;;;42.72;22.27;;;0.80;99.90;;;;;;6133394;23;20013;-80
2022/01/10 09:48:21;;;;;;;42.78;23.02;;;0.80;99.90;;;;;;6159323;23;20013;-80
2022/01/10 09:50:48;;;;;;;45.60;23.33;;;1.20;99.90;;;;;;6152660;23;20013;-77
2022/01/10 09:53:17;;;;;;;53.13;25.50;;;1.50;99.90;;;;;;6150426;23;20029;-78
2022/01/10 09:56:03;;;;;;;45.63;23.77;;;1.30;99.90;;;;;;6151826;23;20351;-81
2022/01/10 09:58:29;;;;;;;42.67;23.40;;;1.20;99.90;;;;;;6151707;23;20516;-80
2022/01/10 10:00:59;;;;;;;44.75;24.83;;;1.20;99.90;;;;;;6128536;23;20013;-77
2022/01/10 10:03:25;;;;;;;45.95;23.17;;;1.20;99.90;;;;;;6150814;23;20291;-79
2022/01/10 10:05:54;;;;;;;46.83;24.98;;;1.20;99.90;;;;;;6153250;23;20009;-79
2022/01/10 10:08:24;;;;;;;49.25;25.35;;;1.20;99.90;;;;;;6150880;23;20299;-79
2022/01/10 10:10:51;;;;;;;45.92;24.50;;;1.20;99.90;;;;;;6127612;23;20073;-78
2022/01/10 10:13:17;;;;;;;51.60;24.40;;;1.20;99.90;;;;;;6150947;23;20425;-77
2022/01/10 10:15:45;;;;;;;60.97;27.67;;;1.30;99.90;;;;;;6151215;23;20028;-78
2022/01/10 10:18:13;;;;;;;48.85;25.15;;;1.30;99.90;;;;;;6150675;23;20021;-79
2022/01/10 10:21:18;;;;;;;62.65;28.67;;;1.30;99.90;;;;;;6154864;23;20017;-82
2022/01/10 10:23:50;;;;;;;55.90;27.60;;;1.30;99.90;;;;;;6126394;23;20067;-81
2022/01/10 10:26:35;;;;;;;54.10;27.27;;;1.40;99.90;;;;;;6152425;23;20010;-81
2022/01/10 10:29:19;;;;;;;62.42;28.00;;;1.80;99.90;;;;;;6126030;23;20041;-81
2022/01/10 10:32:09;;;;;;;46.38;25.90;;;2.20;99.90;;;;;;6127700;23;20056;-82
2022/01/10 10:34:51;;;;;;;;;;;1.60;99.90;;;;;;6129086;23;20120;-82
2022/01/10 10:37:17;;;;;;;65.60;29.52;;;0.90;99.90;;;;;;6151399;23;20230;-79
2022/01/10 10:39:44;;;;;;;54.22;28.40;;;1.70;99.90;;;;;;6126355;23;20025;-78
2022/01/10 10:42:16;;;;;;;67.45;33.92;;;1.80;99.90;;;;;;6151735;23;20017;-79
2022/01/10 10:44:44;;;;;;;75.10;35.10;;;1.90;99.90;;;;;;6127902;23;20021;-82
2022/01/10 10:47:17;;;;;;;75.85;34.60;;;2.00;99.90;;;;;;6152271;23;20097;-81
2022/01/10 10:49:50;;;;;;;64.55;32.05;;;2.10;99.90;;;;;;6153497;23;20144;-81
2022/01/10 10:52:16;;;;;;;66.00;31.60;;;2.90;99.90;;;;;;6127804;23;20031;-83
2022/01/10 10:54:42;;;;;;;86.53;37.72;;;2.20;99.90;;;;;;6150266;23;20350;-81
2022/01/10 10:57:10;;;;;;;87.93;38.85;;;2.30;99.90;;;;;;6150729;23;20013;-81
2022/01/10 10:59:43;;;;;;;84.95;36.42;;;2.40;99.90;;;;;;6127510;23;20009;-81
2022/01/10 11:02:09;;;;;;;93.15;38.85;;;2.50;99.90;;;;;;6127936;23;20072;-82
2022/01/10 11:04:35;;;;;;;99.32;39.47;;;2.60;99.90;;;;;;6128361;23;20016;-81
2022/01/10 11:07:02;;;;;;;71.22;31.58;;;2.70;99.90;;;;;;6151533;23;20049;-81
2022/01/10 11:09:28;;;;;;;58.72;31.35;;;2.90;99.90;;;;;;6151153;23;20089;-81
2022/01/10 11:11:54;;;;;;;57.42;30.70;;;2.90;99.90;;;;;;6153129;23;20099;-81
2022/01/10 11:14:24;;;;;;;68.10;34.15;;;3.00;99.90;;;;;;6127551;23;20018;-81
2022/01/10 11:16:52;;;;;;;81.65;37.83;;;3.00;99.90;;;;;;6153536;23;20124;-81
2022/01/10 11:19:23;;;;;;;60.80;31.48;;;3.10;99.90;;;;;;6127743;23;20049;-81
2022/01/10 11:22:01;;;;;;;98.90;41.13;;;3.10;99.90;;;;;;6153308;23;20489;-82
2022/01/10 11:25:03;;;;;;;105.35;43.28;;;3.20;99.90;;;;;;6127066;23;20096;-81
2022/01/10 11:27:33;;;;;;;85.55;39.22;;;3.40;99.90;;;;;;6151921;23;20013;-82
2022/01/10 11:30:19;;;;;;;85.88;40.35;;;3.50;99.90;;;;;;6152236;23;20017;-82
2022/01/10 11:32:54;;;;;;;101.80;43.72;;;3.90;99.90;;;;;;6126425;23;20024;-80
2022/01/10 11:35:20;;;;;;;93.35;42.75;;;3.80;99.90;;;;;;6152201;23;20017;-82
2022/01/10 11:37:46;;;;;;;94.90;42.58;;;3.90;99.90;;;;;;6152549;23;20093;-80
2022/01/10 11:40:18;;;;;;;87.93;40.35;;;4.10;99.90;;;;;;6152063;23;20010;-81
2022/01/10 11:42:54;;;;;;;100.18;41.03;;;4.20;99.90;;;;;;6148482;23;20026;-79
2022/01/10 11:45:20;;;;;;;96.05;45.03;;;4.20;99.90;;;;;;6149971;23;20045;-79
2022/01/10 11:48:11;;;;;;;87.72;43.03;;;4.40;99.90;;;;;;6150766;23;20013;-80
2022/01/10 11:50:41;;;;;;;84.82;40.42;;;4.40;99.90;;;;;;6151485;23;20017;-80
2022/01/10 11:53:10;;;;;;;89.20;41.58;;;4.50;99.90;;;;;;6150184;23;20037;-84
2022/01/10 11:55:55;;;;;;;89.20;41.67;;;4.90;99.90;;;;;;6151022;23;20025;-79
2022/01/10 11:58:24;;;;;;;62.65;32.42;;;4.60;99.90;;;;;;6150566;23;20088;-80
2022/01/10 12:00:52;;;;;;;57.55;31.25;;;4.60;99.90;;;;;;6149012;23;20045;-77
2022/01/10 12:03:21;;;;;;;65.88;35.10;;;4.30;99.90;;;;;;6149522;23;20053;-77
2022/01/10 12:05:48;;;;;;;93.00;43.58;;;4.70;99.90;;;;;;6148848;23;20014;-76
2022/01/10 12:08:14;;;;;;;67.43;32.45;;;4.80;99.90;;;;;;6148433;23;20809;-81
2022/01/10 12:10:40;;;;;;;87.20;41.72;;;4.90;99.90;;;;;;6149949;23;20049;-79
2022/01/10 12:13:40;;;;;;;75.95;39.42;;;4.90;99.90;;;;;;6152695;23;20018;-80
2022/01/10 12:16:06;;;;;;;58.60;30.35;;;5.10;99.90;;;;;;6126878;23;20017;-79
2022/01/10 12:18:33;;;;;;;73.55;35.05;;;5.10;99.90;;;;;;6151174;23;20010;-76
2022/01/10 12:20:59;;;;;;;72.35;31.73;;;5.30;99.90;;;;;;6151140;23;20152;-76
2022/01/10 12:23:25;;;;;;;70.38;34.58;;;5.40;99.90;;;;;;6152023;23;20014;-76
2022/01/10 12:25:51;;;;;;;62.95;31.23;;;5.50;99.90;;;;;;6152145;23;20024;-76
2022/01/10 12:28:17;;;;;;;63.55;30.55;;;5.60;99.90;;;;;;6151663;23;20014;-76
2022/01/10 12:30:44;;;;;;;62.50;28.95;;;5.70;99.90;;;;;;6150396;23;20153;-76
2022/01/10 12:33:10;;;;;;;56.95;26.63;;;5.70;99.90;;;;;;6150605;23;20017;-76
2022/01/10 12:35:36;;;;;;;52.35;26.13;;;5.90;99.90;;;;;;6151761;23;20020;-76
2022/01/10 12:38:02;;;;;;;49.65;24.63;;;5.90;99.90;;;;;;6150856;23;20017;-76
2022/01/10 12:40:31;;;;;;;47.47;24.13;;;5.90;99.90;;;;;;6126645;23;20344;-76
2022/01/10 12:42:58;;;;;;;51.42;23.17;;;5.90;99.90;;;;;;6126472;23;20013;-76
2022/01/10 12:45:24;;;;;;;49.30;22.33;;;5.90;99.90;;;;;;6125595;23;20024;-78
2022/01/10 12:47:50;;;;;;;38.60;18.60;;;5.90;99.90;;;;;;6150868;23;20453;-76
2022/01/10 12:50:15;;;;;;;43.00;20.10;;;5.80;99.90;;;;;;6150135;23;20018;-76
2022/01/10 12:52:42;;;;;;;44.00;20.60;;;5.90;99.90;;;;;;6125280;23;20033;-76
2022/01/10 12:55:09;;;;;;;47.28;19.83;;;5.80;99.90;;;;;;6126918;23;20042;-77
2022/01/10 12:57:34;;;;;;;36.67;19.00;;;5.70;99.90;;;;;;6151132;23;20013;-78
2022/01/10 13:00:00;;;;;;;42.03;19.05;;;5.60;99.90;;;;;;6149969;23;20009;-79
2022/01/10 13:02:32;;;;;;;41.05;18.25;;;5.50;99.90;;;;;;6152391;23;20092;-80
2022/01/10 13:05:25;;;;;;;41.47;19.38;;;5.40;99.90;;;;;;6153059;23;20068;-80
2022/01/10 13:08:42;;;;;;;43.75;20.17;;;5.40;99.90;;;;;;6012087;23;20049;-81
2022/01/10 13:11:44;;;;;;;34.70;18.77;;;5.40;99.90;;;;;;6007900;23;20019;-78
2022/01/10 13:14:13;;;;;;;41.65;19.20;;;5.30;99.90;;;;;;5983541;23;20018;-79
2022/01/10 13:16:39;;;;;;;37.45;19.00;;;5.20;99.90;;;;;;5984566;23;20016;-77
2022/01/10 13:19:10;;;;;;;38.65;19.05;;;5.20;99.90;;;;;;6006520;23;20106;-77
2022/01/10 13:22:31;;;;;;;;;;;;;;;;;;;;;
2022/01/10 13:25:59;;;;;;;;;;;;;;;;;;;;;
2022/01/10 13:44:17;;;;;;;44.70;19.75;;;5.10;99.90;;;;;;5665772;25;20396;-80
2022/01/10 13:46:44;;;;;;;42.72;19.13;;;5.10;99.90;;;;;;5716311;25;20020;-79
2022/01/10 13:49:10;;;;;;;43.72;19.52;;;5.10;99.90;;;;;;5737080;24;20069;-81
2022/01/10 13:51:35;;;;;;;40.90;19.85;;;5.10;99.90;;;;;;5738118;24;20514;-79
2022/01/10 13:54:04;;;;;;;44.20;20.10;;;5.10;99.90;;;;;;5736698;25;20051;-79
2022/01/10 13:56:32;;;;;;;34.78;19.00;;;5.10;99.90;;;;;;5737160;25;20063;-79
2022/01/10 13:59:00;;;;;;;39.65;20.17;;;5.10;99.90;;;;;;5737582;25;20024;-83
2022/01/10 14:01:36;;;;;;;34.72;19.25;;;5.10;99.90;;;;;;5770463;24;20030;-81
2022/01/10 14:04:32;;;;;;;42.22;19.52;;;5.10;99.90;;;;;;5835799;24;20029;-77
2022/01/10 14:07:17;;;;;;;46.05;20.00;;;5.10;99.90;;;;;;5874009;24;20078;-78
2022/01/10 14:09:44;;;;;;;44.22;19.40;;;5.10;99.90;;;;;;5874228;24;20114;-79
2022/01/10 14:12:10;;;;;;;45.00;19.25;;;5.00;99.90;;;;;;5871987;23;20023;-75
2022/01/10 14:14:36;;;;;;;36.50;18.58;;;5.10;99.90;;;;;;5987855;23;20330;-74
2022/01/10 14:17:02;;;;;;;35.10;18.17;;;5.00;99.90;;;;;;6068493;23;20099;-75
2022/01/10 14:19:28;;;;;;;41.47;18.20;;;5.00;99.90;;;;;;6127183;23;20017;-76
2022/01/10 14:21:54;;;;;;;46.33;18.92;;;5.00;99.90;;;;;;6128086;23;20173;-75
2022/01/10 14:24:20;;;;;;;40.78;18.83;;;5.00;99.90;;;;;;6124696;23;20017;-75
2022/01/10 14:26:47;;;;;;;35.97;19.15;;;5.20;99.90;;;;;;6127707;23;20137;-75
2022/01/10 14:29:13;;;;;;;39.10;18.65;;;5.00;99.90;;;;;;6150734;23;20021;-76
2022/01/10 14:31:39;;;;;;;51.90;19.92;;;4.90;99.90;;;;;;6103306;23;20021;-78
2022/01/10 14:34:05;;;;;;;40.72;19.02;;;4.90;99.90;;;;;;6125753;23;20113;-75
2022/01/10 14:36:31;;;;;;;36.47;19.02;;;4.90;99.90;;;;;;6103951;23;20453;-75
2022/01/10 14:38:56;;;;;;;45.90;19.88;;;4.80;99.90;;;;;;6150763;23;20045;-76
2022/01/10 14:41:24;;;;;;;38.00;19.52;;;4.90;99.90;;;;;;6103057;23;20048;-76
2022/01/10 14:43:50;;;;;;;38.88;17.95;;;4.80;99.90;;;;;;6127092;23;20434;-75
2022/01/10 14:46:17;;;;;;;36.83;19.15;;;4.70;99.90;;;;;;6151380;23;20014;-78
2022/01/10 14:48:44;;;;;;;35.78;16.20;;;4.80;99.90;;;;;;6102368;23;20014;-78
2022/01/10 14:51:10;;;;;;;37.03;18.00;;;4.90;99.90;;;;;;6145195;23;20088;-79
2022/01/10 14:53:40;;;;;;;32.90;18.70;;;4.80;99.90;;;;;;6150024;23;20033;-79
2022/01/10 14:56:08;;;;;;;39.22;19.00;;;4.80;99.90;;;;;;6151834;23;20059;-79
2022/01/10 14:58:34;;;;;;;38.30;17.77;;;4.70;99.90;;;;;;6150788;23;20022;-79
2022/01/10 15:01:00;;;;;;;39.15;17.85;;;4.70;99.90;;;;;;6152081;23;20071;-80
2022/01/10 15:03:26;;;;;;;37.63;18.92;;;4.50;99.90;;;;;;6150152;23;20021;-80
2022/01/10 15:05:53;;;;;;;37.97;18.75;;;4.50;99.90;;;;;;6153644;23;20053;-80
2022/01/10 15:08:21;;;;;;;41.67;18.67;;;4.50;99.90;;;;;;6151849;23;20013;-80
2022/01/10 15:10:47;;;;;;;37.58;18.15;;;4.50;99.90;;;;;;6152425;23;20170;-80
2022/01/10 15:13:15;;;;;;;35.83;17.75;;;4.40;99.90;;;;;;6126552;23;20017;-85
2022/01/10 15:15:42;;;;;;;39.50;19.70;;;4.40;99.90;;;;;;6103979;23;20021;-83
2022/01/10 15:18:09;;;;;;;34.65;17.50;;;4.30;99.90;;;;;;6151631;23;20089;-81
2022/01/10 15:20:35;;;;;;;44.78;18.70;;;4.20;99.90;;;;;;6151078;23;20068;-82
2022/01/10 15:23:02;;;;;;;40.53;19.35;;;4.20;99.90;;;;;;6102232;23;20028;-81
2022/01/10 15:25:29;;;;;;;39.88;19.08;;;4.20;99.90;;;;;;6127389;23;20461;-81
2022/01/10 15:27:55;;;;;;;38.67;17.77;;;4.10;99.90;;;;;;6127699;23;20045;-81
2022/01/10 15:30:21;;;;;;;31.20;17.17;;;4.00;99.90;;;;;;6127509;23;20716;-81
2022/01/10 15:32:47;;;;;;;35.38;18.70;;;4.00;99.90;;;;;;6126189;23;20045;-82
2022/01/10 15:35:12;;;;;;;40.00;20.20;;;3.90;99.90;;;;;;6149999;23;20048;-81
2022/01/10 15:37:38;;;;;;;36.05;19.58;;;4.20;99.90;;;;;;6126281;23;20171;-81
2022/01/10 15:40:09;;;;;;;34.75;19.90;;;3.80;99.90;;;;;;6126834;23;20481;-83
2022/01/10 15:42:40;;;;;;;38.03;19.75;;;3.50;99.90;;;;;;6126040;23;20374;-77
2022/01/10 15:45:08;;;;;;;37.70;20.42;;;3.60;99.90;;;;;;6151002;23;20017;-77
2022/01/10 15:47:34;;;;;;;41.97;20.88;;;3.60;99.90;;;;;;6151218;23;20014;-79
2022/01/10 15:50:01;;;;;;;38.13;20.67;;;3.50;99.90;;;;;;6125505;23;20033;-79
2022/01/10 15:52:27;;;;;;;43.33;20.50;;;3.50;99.90;;;;;;6125657;23;20095;-79
2022/01/10 15:54:53;;;;;;;41.17;20.95;;;3.40;99.90;;;;;;6149976;23;20489;-78
2022/01/10 15:57:19;;;;;;;38.30;19.27;;;3.40;99.90;;;;;;6123963;23;20017;-77
2022/01/10 15:59:45;;;;;;;43.10;19.98;;;3.30;99.90;;;;;;6148902;23;20536;-79
2022/01/10 16:02:12;;;;;;;38.22;20.58;;;3.30;99.90;;;;;;6124636;23;20017;-79
2022/01/10 16:04:41;;;;;;;38.22;20.90;;;3.20;99.90;;;;;;6150160;23;20028;-79
2022/01/10 16:07:08;;;;;;;34.75;20.52;;;3.20;99.90;;;;;;6150130;23;20036;-79
2022/01/10 16:09:34;;;;;;;42.25;20.48;;;3.20;99.90;;;;;;6149767;23;20021;-79
2022/01/10 16:12:00;;;;;;;48.97;22.30;;;3.10;99.90;;;;;;6125989;23;20410;-79
2022/01/10 16:14:27;;;;;;;49.20;22.52;;;3.10;99.90;;;;;;6125093;23;20017;-80
2022/01/10 16:16:53;;;;;;;39.30;22.83;;;3.00;99.90;;;;;;6148807;23;20107;-78
2022/01/10 16:19:19;;;;;;;44.20;24.05;;;3.00;99.90;;;;;;6148783;23;20021;-78
2022/01/10 16:21:45;;;;;;;46.63;24.55;;;3.00;99.90;;;;;;6149406;23;20128;-79
2022/01/10 16:24:11;;;;;;;48.08;28.50;;;2.80;99.90;;;;;;6147903;23;20009;-76
2022/01/10 16:26:37;;;;;;;57.45;29.02;;;2.80;99.90;;;;;;6124201;23;20017;-78
2022/01/10 16:29:03;;;;;;;53.47;29.17;;;2.80;99.90;;;;;;6150977;23;20021;-78
2022/01/10 16:31:28;;;;;;;52.78;27.90;;;2.70;99.90;;;;;;6149834;23;20024;-77
2022/01/10 16:33:54;;;;;;;52.78;27.40;;;2.90;99.90;;;;;;6124989;23;20025;-78
2022/01/10 16:36:24;;;;;;;43.65;26.50;;;2.60;99.90;;;;;;6150030;23;20105;-78
2022/01/10 16:38:51;;;;;;;49.30;28.25;;;2.60;99.90;;;;;;6149787;23;20013;-78
2022/01/10 16:41:17;;;;;;;41.97;25.08;;;2.50;99.90;;;;;;6150133;23;20052;-81
2022/01/10 16:43:52;;;;;;;59.30;29.05;;;2.50;99.90;;;;;;6125070;23;20326;-81
2022/01/10 16:46:25;;;;;;;;;;;2.50;99.90;;;;;;6127273;23;20017;-82
2022/01/10 16:48:51;;;;;;;55.13;26.77;;;2.90;99.90;;;;;;6149952;23;20308;-81
2022/01/10 16:51:17;;;;;;;63.13;27.83;;;2.40;99.90;;;;;;6127277;23;20022;-82
2022/01/10 16:53:46;;;;;;;59.40;28.23;;;2.30;99.90;;;;;;6126174;23;20076;-84
2022/01/10 16:56:15;;;;;;;41.88;24.05;;;2.30;99.90;;;;;;6154119;23;20009;-82
2022/01/10 16:58:51;;;;;;;55.40;26.85;;;2.30;99.90;;;;;;6151305;23;20115;-83
2022/01/10 17:01:43;;;;;;;57.40;30.42;;;2.90;99.90;;;;;;6091125;23;20386;-84
2022/01/10 17:07:26;;;;;;;60.45;31.15;;;2.20;99.90;;;;;;6126281;23;20403;-80
2022/01/10 17:10:21;;;;;;;77.90;39.85;;;2.50;99.90;;;;;;6126422;23;20116;-82
2022/01/10 17:12:53;;;;;;;51.97;27.63;;;2.00;99.90;;;;;;6151251;23;20021;-80
2022/01/10 17:15:26;;;;;;;53.70;30.45;;;2.10;99.90;;;;;;6150390;23;20013;-81
2022/01/10 17:17:52;;;;;;;62.35;33.50;;;2.10;99.90;;;;;;6125118;23;20445;-80
2022/01/10 17:20:18;;;;;;;47.75;29.55;;;2.10;99.90;;;;;;6150096;23;20014;-81
2022/01/10 17:22:44;;;;;;;51.60;28.73;;;2.00;99.90;;;;;;6150716;23;20484;-80
2022/01/10 17:25:11;;;;;;;44.47;28.40;;;2.00;99.90;;;;;;6124905;23;20013;-80
2022/01/10 17:27:38;;;;;;;50.25;28.02;;;1.90;99.90;;;;;;6125593;23;20009;-80
2022/01/10 17:30:09;;;;;;;43.38;26.70;;;1.90;99.90;;;;;;6126243;23;20013;-81
2022/01/10 17:33:11;;;;;;;46.17;27.45;;;1.90;99.90;;;;;;6126209;23;20057;-85
2022/01/10 17:36:16;;;;;;;48.35;26.90;;;1.90;99.90;;;;;;6014939;23;20176;-83
2022/01/10 17:42:53;;;;;;;42.75;26.35;;;1.70;99.90;;;;;;5979268;23;20039;-82
2022/01/10 17:45:42;;;;;;;49.15;26.73;;;1.80;99.90;;;;;;5980620;23;20436;-80
2022/01/10 17:48:14;;;;;;;50.03;26.95;;;1.80;99.90;;;;;;5960698;23;20012;-77
2022/01/10 17:50:49;;;;;;;53.08;28.05;;;2.20;99.90;;;;;;5984247;23;20026;-77
2022/01/10 17:53:21;;;;;;;51.05;27.95;;;1.80;99.90;;;;;;5983267;23;20026;-77
2022/01/10 17:55:47;;;;;;;63.40;30.17;;;1.80;99.90;;;;;;5983659;23;20108;-77
2022/01/10 17:58:13;;;;;;;59.15;30.90;;;1.80;99.90;;;;;;5983576;23;20094;-76
2022/01/10 18:00:40;;;;;;;48.15;28.17;;;1.80;99.90;;;;;;5960190;23;20100;-77
2022/01/10 18:03:06;;;;;;;57.92;29.17;;;1.80;99.90;;;;;;5960523;23;20390;-76
2022/01/10 18:05:32;;;;;;;46.80;28.42;;;1.80;99.90;;;;;;5976702;23;20070;-78
2022/01/10 18:07:57;;;;;;;56.70;29.90;;;1.80;99.90;;;;;;5955463;24;20038;-75
2022/01/10 18:10:26;;;;;;;59.42;32.42;;;1.80;99.90;;;;;;6025712;23;20023;-77
2022/01/10 18:12:52;;;;;;;75.75;36.70;;;1.80;99.90;;;;;;6040209;23;20416;-77
2022/01/10 18:15:18;;;;;;;78.15;37.83;;;1.90;99.90;;;;;;6040963;23;20050;-77
2022/01/10 18:17:48;;;;;;;78.15;37.22;;;1.80;99.90;;;;;;6040943;23;20015;-81
2022/01/10 18:20:15;;;;;;;94.40;41.63;;;1.80;99.90;;;;;;6097287;23;20017;-79
2022/01/10 18:22:41;;;;;;;107.07;45.78;;;1.80;99.90;;;;;;6120766;23;20022;-79
2022/01/10 18:25:13;;;;;;;87.47;38.15;;;1.80;99.90;;;;;;6121235;23;20021;-78
2022/01/10 18:27:41;;;;;;;77.75;34.88;;;1.80;99.90;;;;;;6097658;23;20022;-78
2022/01/10 18:30:10;;;;;;;61.83;32.35;;;1.80;99.90;;;;;;6121126;23;20014;-79
2022/01/10 18:32:36;;;;;;;58.53;31.40;;;1.80;99.90;;;;;;6096115;23;20025;-78
2022/01/10 18:43:40;;;;;;;62.95;30.08;;;1.10;99.90;;;;;;5894217;24;20080;-80
2022/01/10 18:46:54;;;;;;;61.67;29.30;;;1.40;99.90;;;;;;5870497;24;20053;-81
2022/01/10 18:49:31;;;;;;;64.28;29.92;;;1.60;99.90;;;;;;5871921;24;20052;-80
2022/01/10 18:52:34;;;;;;;50.40;29.65;;;1.80;99.90;;;;;;5872357;24;20033;-80
2022/01/10 18:55:04;;;;;;;56.35;30.58;;;1.60;99.90;;;;;;5895392;24;20018;-79
2022/01/10 18:57:34;;;;;;;62.78;31.60;;;1.50;99.90;;;;;;5871917;24;20096;-80
2022/01/10 19:00:18;;;;;;;58.88;31.90;;;1.50;99.90;;;;;;5871767;24;20024;-80
2022/01/10 19:02:47;;;;;;;58.95;31.75;;;1.90;99.90;;;;;;5894823;24;20078;-81
2022/01/10 19:05:23;;;;;;;68.93;32.65;;;1.40;99.90;;;;;;5872073;24;20013;-80
2022/01/10 19:07:51;;;;;;;59.22;33.45;;;1.30;99.90;;;;;;5872856;24;20076;-81
2022/01/10 19:10:17;;;;;;;56.38;31.27;;;2.40;99.90;;;;;;5873799;24;20117;-80
2022/01/10 19:12:42;;;;;;;67.97;32.38;;;1.30;99.90;;;;;;5898401;24;20540;-78
2022/01/10 19:15:33;;;;;;;61.10;33.50;;;2.30;99.90;;;;;;5991100;23;20022;-80
2022/01/10 19:18:07;;;;;;;59.58;32.78;;;1.20;99.90;;;;;;6010783;23;20011;-80
2022/01/10 19:25:14;;;;;;;81.47;37.08;;;1.10;99.90;;;;;;5909330;24;20076;-81
2022/01/10 19:28:02;;;;;;;77.70;35.30;;;1.00;99.90;;;;;;5925822;24;20020;-81
2022/01/10 19:30:42;;;;;;;90.85;39.45;;;2.00;99.90;;;;;;5904394;24;20020;-80
2022/01/10 19:33:08;;;;;;;207.55;34.53;;;0.90;99.90;;;;;;5926553;24;20020;-81
2022/01/10 19:35:35;;;;;;;164.38;35.97;;;0.30;99.90;;;;;;5902460;24;20084;-82
2022/01/10 19:38:02;;;;;;;191.38;38.85;;;0.80;99.90;;;;;;5925378;24;20093;-80
2022/01/10 19:40:30;;;;;;;232.75;39.63;;;0.80;99.90;;;;;;5902372;24;20024;-81
2022/01/10 19:42:57;;;;;;;121.25;40.30;;;0.80;99.90;;;;;;5902070;24;20053;-81
2022/01/10 19:45:24;;;;;;;156.75;39.45;;;1.70;99.90;;;;;;5925699;24;20024;-82
2022/01/10 19:47:50;;;;;;;143.52;36.13;;;0.70;99.90;;;;;;5925753;24;20020;-81
2022/01/10 19:50:17;;;;;;;97.00;37.05;;;1.70;99.90;;;;;;5926087;24;20422;-81
2022/01/10 19:52:44;;;;;;;112.15;36.35;;;1.20;99.90;;;;;;5926045;24;20055;-82
2022/01/10 19:55:11;;;;;;;81.30;35.42;;;0.70;99.90;;;;;;5936122;24;20013;-82
2022/01/10 19:57:37;;;;;;;123.80;36.08;;;0.70;99.90;;;;;;5900698;24;20100;-82
2022/01/10 20:00:14;;;;;;;141.60;33.08;;;0.60;99.90;;;;;;5947147;23;20027;-80
2022/01/10 20:02:43;;;;;;;125.95;32.38;;;0.60;99.90;;;;;;5958724;23;20016;-81
2022/01/10 20:05:12;;;;;;;67.63;34.17;;;0.50;99.90;;;;;;5958160;23;20051;-82
2022/01/10 20:07:39;;;;;;;134.20;32.70;;;0.40;99.90;;;;;;6032412;23;20018;-82
2022/01/10 20:10:05;;;;;;;164.98;33.58;;;0.80;99.90;;;;;;6121668;23;20022;-82
2022/01/10 20:12:31;;;;;;;218.27;38.75;;;0.30;99.90;;;;;;6122123;23;20389;-81
2022/01/10 20:14:56;;;;;;;215.15;40.88;;;0.30;99.90;;;;;;6121358;23;20018;-83
2022/01/10 20:17:22;;;;;;;270.42;38.50;;;0.80;99.90;;;;;;6120853;23;20117;-82
2022/01/10 20:19:48;;;;;;;140.55;37.65;;;0.30;99.90;;;;;;6121404;23;20014;-81
2022/01/10 20:22:14;;;;;;;299.13;40.88;;;0.30;99.90;;;;;;6121107;23;20076;-83
2022/01/10 20:24:40;;;;;;;170.68;35.92;;;1.10;99.90;;;;;;6121162;23;20411;-83
2022/01/10 20:27:06;;;;;;;219.70;35.85;;;0.20;99.90;;;;;;6095292;23;20045;-84
2022/01/10 20:29:32;;;;;;;210.82;38.63;;;0.80;99.90;;;;;;6096062;23;20100;-84
2022/01/10 20:31:59;;;;;;;167.40;34.97;;;0.30;99.90;;;;;;6097174;23;20085;-83
2022/01/10 20:34:57;;;;;;;167.85;37.00;;;0.10;99.90;;;;;;6098356;23;20022;-85
2022/01/10 20:37:23;;;;;;;170.70;37.75;;;0.10;99.90;;;;;;5986322;23;20023;-82
2022/01/10 20:39:54;;;;;;;214.85;37.53;;;0.20;99.90;;;;;;6032266;23;20084;-82
2022/01/10 20:42:20;;;;;;;173.27;41.83;;;0.80;99.90;;;;;;6009230;23;20420;-81
2022/01/10 20:44:46;;;;;;;218.10;41.13;;;0.20;99.90;;;;;;6033598;23;20019;-82
2022/01/10 20:47:13;;;;;;;151.23;40.40;;;0.30;99.90;;;;;;6009183;23;20974;-82
2022/01/10 20:49:39;;;;;;;165.55;43.42;;;1.40;99.90;;;;;;6009640;23;20094;-82
2022/01/10 20:52:07;;;;;;;194.93;42.90;;;0.30;99.90;;;;;;6033344;23;20122;-82
2022/01/10 20:54:32;;;;;;;130.70;43.30;;;0.30;99.90;;;;;;6033211;23;20038;-81